sensor_id;sensor_type;location;lat;lon;timestamp;pressure;altitude;pressure_sealevel;temperature;humidity
28606;BME280;46498;49.968;7.754;2022-08-19T00:04:30;96859.00;;;18.75;79.12
28606;BME280;46498;49.968;7.754;2022-08-19T00:09:32;96859.00;;;18.78;79.25
28606;BME280;46498;49.968;7.754;2022-08-19T00:14:33;96861.00;;;18.78;79.19
28606;BME280;46498;49.968;7.754;2022-08-19T00:19:37;96873.00;;;18.73;79.81
28606;BME280;46498;49.968;7.754;2022-08-19T00:24:38;96862.00;;;18.73;80.20
28606;BME280;46498;49.968;7.754;2022-08-19T00:29:39;96852.00;;;18.68;80.16
28606;BME280;46498;49.968;7.754;2022-08-19T00:34:40;96852.00;;;18.61;80.57
28606;BME280;46498;49.968;7.754;2022-08-19T00:39:41;96849.00;;;18.63;80.44
28606;BME280;46498;49.968;7.754;2022-08-19T00:44:42;96839.00;;;18.71;79.87
28606;BME280;46498;49.968;7.754;2022-08-19T00:49:50;96847.00;;;18.70;79.79
28606;BME280;46498;49.968;7.754;2022-08-19T00:54:52;96857.00;;;18.68;80.01
28606;BME280;46498;49.968;7.754;2022-08-19T00:59:56;96856.00;;;18.28;81.72
28606;BME280;46498;49.968;7.754;2022-08-19T01:05:08;96844.00;;;18.09;82.98
28606;BME280;46498;49.968;7.754;2022-08-19T01:10:13;96853.00;;;18.00;84.05
28606;BME280;46498;49.968;7.754;2022-08-19T01:15:19;96846.00;;;17.92;83.93
28606;BME280;46498;49.968;7.754;2022-08-19T01:20:22;96836.00;;;17.91;84.15
28606;BME280;46498;49.968;7.754;2022-08-19T01:25:30;96831.00;;;17.94;84.08
28606;BME280;46498;49.968;7.754;2022-08-19T01:30:35;96822.00;;;17.97;83.92
28606;BME280;46498;49.968;7.754;2022-08-19T01:35:36;96823.00;;;18.17;82.63
28606;BME280;46498;49.968;7.754;2022-08-19T01:40:39;96822.00;;;18.08;82.78
28606;BME280;46498;49.968;7.754;2022-08-19T01:45:41;96809.00;;;18.14;82.24
28606;BME280;46498;49.968;7.754;2022-08-19T01:50:42;96805.00;;;18.02;82.51
28606;BME280;46498;49.968;7.754;2022-08-19T01:55:44;96806.00;;;18.08;82.32
28606;BME280;46498;49.968;7.754;2022-08-19T02:00:46;96814.00;;;18.03;82.03
28606;BME280;46498;49.968;7.754;2022-08-19T02:05:47;96824.00;;;18.07;81.54
28606;BME280;46498;49.968;7.754;2022-08-19T02:10:48;96832.00;;;18.05;82.06
28606;BME280;46498;49.968;7.754;2022-08-19T02:15:50;96830.00;;;18.02;81.02
28606;BME280;46498;49.968;7.754;2022-08-19T02:20:51;96828.00;;;17.83;82.37
28606;BME280;46498;49.968;7.754;2022-08-19T02:25:52;96825.00;;;17.70;82.71
28606;BME280;46498;49.968;7.754;2022-08-19T02:30:53;96825.00;;;17.61;83.02
28606;BME280;46498;49.968;7.754;2022-08-19T02:35:54;96831.00;;;17.58;83.26
28606;BME280;46498;49.968;7.754;2022-08-19T02:41:04;96830.00;;;17.63;83.17
28606;BME280;46498;49.968;7.754;2022-08-19T02:46:39;96836.00;;;17.45;83.82
28606;BME280;46498;49.968;7.754;2022-08-19T02:51:42;96844.00;;;17.32;85.02
28606;BME280;46498;49.968;7.754;2022-08-19T02:56:44;96852.00;;;16.98;87.63
28606;BME280;46498;49.968;7.754;2022-08-19T03:01:45;96846.00;;;17.01;86.31
28606;BME280;46498;49.968;7.754;2022-08-19T03:06:47;96858.00;;;16.97;86.28
28606;BME280;46498;49.968;7.754;2022-08-19T03:11:48;96858.00;;;16.95;86.73
28606;BME280;46498;49.968;7.754;2022-08-19T03:16:53;96854.00;;;17.03;86.15
28606;BME280;46498;49.968;7.754;2022-08-19T03:21:54;96856.00;;;16.94;86.73
28606;BME280;46498;49.968;7.754;2022-08-19T03:26:56;96857.00;;;16.98;87.24
28606;BME280;46498;49.968;7.754;2022-08-19T03:32:04;96846.00;;;17.01;87.08
28606;BME280;46498;49.968;7.754;2022-08-19T03:37:08;96853.00;;;17.02;87.09
28606;BME280;46498;49.968;7.754;2022-08-19T03:42:10;96853.00;;;17.01;86.88
28606;BME280;46498;49.968;7.754;2022-08-19T03:47:49;96845.00;;;16.89;87.04
28606;BME280;46498;49.968;7.754;2022-08-19T03:52:51;96835.00;;;16.87;87.53
28606;BME280;46498;49.968;7.754;2022-08-19T03:57:52;96846.00;;;16.67;88.25
28606;BME280;46498;49.968;7.754;2022-08-19T04:02:59;96849.00;;;16.73;88.71
28606;BME280;46498;49.968;7.754;2022-08-19T04:08:02;96863.00;;;16.73;88.22
28606;BME280;46498;49.968;7.754;2022-08-19T04:13:04;96868.00;;;16.61;88.66
28606;BME280;46498;49.968;7.754;2022-08-19T04:18:10;96866.00;;;16.71;88.83
28606;BME280;46498;49.968;7.754;2022-08-19T04:23:12;96868.00;;;16.64;88.82
28606;BME280;46498;49.968;7.754;2022-08-19T04:28:14;96879.00;;;16.66;88.82
28606;BME280;46498;49.968;7.754;2022-08-19T04:33:17;96875.00;;;16.63;89.17
28606;BME280;46498;49.968;7.754;2022-08-19T04:38:29;96872.00;;;16.72;88.89
28606;BME280;46498;49.968;7.754;2022-08-19T04:43:31;96874.00;;;16.75;88.71
28606;BME280;46498;49.968;7.754;2022-08-19T04:48:32;96876.00;;;16.78;88.66
28606;BME280;46498;49.968;7.754;2022-08-19T04:53:37;96880.00;;;16.73;88.56
28606;BME280;46498;49.968;7.754;2022-08-19T04:58:41;96870.00;;;16.74;88.22
28606;BME280;46498;49.968;7.754;2022-08-19T05:03:43;96866.00;;;16.61;89.50
28606;BME280;46498;49.968;7.754;2022-08-19T05:08:44;96866.00;;;16.48;92.27
28606;BME280;46498;49.968;7.754;2022-08-19T05:13:47;96864.00;;;16.54;92.80
28606;BME280;46498;49.968;7.754;2022-08-19T05:18:49;96869.00;;;16.50;92.58
28606;BME280;46498;49.968;7.754;2022-08-19T05:24:09;96870.00;;;16.60;92.28
28606;BME280;46498;49.968;7.754;2022-08-19T05:29:10;96877.00;;;16.61;90.46
28606;BME280;46498;49.968;7.754;2022-08-19T05:34:11;96896.00;;;16.36;92.03
28606;BME280;46498;49.968;7.754;2022-08-19T05:39:20;96886.00;;;16.26;92.60
28606;BME280;46498;49.968;7.754;2022-08-19T05:44:24;96884.00;;;16.28;92.77
28606;BME280;46498;49.968;7.754;2022-08-19T05:49:26;96871.00;;;16.43;92.98
28606;BME280;46498;49.968;7.754;2022-08-19T05:54:27;96874.00;;;16.52;93.61
28606;BME280;46498;49.968;7.754;2022-08-19T05:59:28;96879.00;;;16.71;93.51
28606;BME280;46498;49.968;7.754;2022-08-19T06:04:33;96885.00;;;16.84;93.16
28606;BME280;46498;49.968;7.754;2022-08-19T06:09:34;96876.00;;;17.03;92.36
28606;BME280;46498;49.968;7.754;2022-08-19T06:14:36;96887.00;;;17.23;91.18
28606;BME280;46498;49.968;7.754;2022-08-19T06:19:42;96903.00;;;17.31;90.94
28606;BME280;46498;49.968;7.754;2022-08-19T06:24:44;96904.00;;;17.61;88.99
28606;BME280;46498;49.968;7.754;2022-08-19T06:29:45;96924.00;;;17.81;88.20
28606;BME280;46498;49.968;7.754;2022-08-19T06:34:47;96944.00;;;18.06;86.75
28606;BME280;46498;49.968;7.754;2022-08-19T06:39:48;96948.00;;;18.32;85.70
28606;BME280;46498;49.968;7.754;2022-08-19T06:44:50;96948.00;;;18.52;84.33
28606;BME280;46498;49.968;7.754;2022-08-19T06:49:58;96951.00;;;18.82;82.84
28606;BME280;46498;49.968;7.754;2022-08-19T06:55:05;96956.00;;;18.89;82.21
28606;BME280;46498;49.968;7.754;2022-08-19T07:00:08;96973.00;;;19.09;81.43
28606;BME280;46498;49.968;7.754;2022-08-19T07:05:14;96974.00;;;19.24;80.79
28606;BME280;46498;49.968;7.754;2022-08-19T07:10:15;96968.00;;;19.38;79.66
28606;BME280;46498;49.968;7.754;2022-08-19T07:15:17;96974.00;;;19.49;79.26
28606;BME280;46498;49.968;7.754;2022-08-19T07:20:19;96968.00;;;19.74;78.46
28606;BME280;46498;49.968;7.754;2022-08-19T07:25:20;96968.00;;;20.08;77.32
28606;BME280;46498;49.968;7.754;2022-08-19T07:30:32;96970.00;;;20.29;76.66
28606;BME280;46498;49.968;7.754;2022-08-19T07:35:35;96973.00;;;20.71;75.24
28606;BME280;46498;49.968;7.754;2022-08-19T07:40:35;96979.00;;;21.07;73.85
28606;BME280;46498;49.968;7.754;2022-08-19T07:45:37;96973.00;;;21.07;72.97
28606;BME280;46498;49.968;7.754;2022-08-19T07:50:38;96965.00;;;20.96;73.40
28606;BME280;46498;49.968;7.754;2022-08-19T07:55:39;96965.00;;;21.20;73.06
28606;BME280;46498;49.968;7.754;2022-08-19T08:00:46;96966.00;;;21.24;72.02
28606;BME280;46498;49.968;7.754;2022-08-19T08:05:48;96970.00;;;21.50;71.52
28606;BME280;46498;49.968;7.754;2022-08-19T08:11:07;96958.00;;;21.58;70.34
28606;BME280;46498;49.968;7.754;2022-08-19T08:16:09;96963.00;;;21.29;71.08
28606;BME280;46498;49.968;7.754;2022-08-19T08:21:14;96982.00;;;21.25;71.53
28606;BME280;46498;49.968;7.754;2022-08-19T08:26:15;96974.00;;;21.40;71.17
28606;BME280;46498;49.968;7.754;2022-08-19T08:31:17;96981.00;;;21.30;71.63
28606;BME280;46498;49.968;7.754;2022-08-19T08:36:20;96981.00;;;21.72;69.31
28606;BME280;46498;49.968;7.754;2022-08-19T08:43:24;96994.00;;;21.93;68.59
28606;BME280;46498;49.968;7.754;2022-08-19T08:48:56;96980.00;;;21.71;68.08
28606;BME280;46498;49.968;7.754;2022-08-19T08:54:02;96987.00;;;21.88;67.11
28606;BME280;46498;49.968;7.754;2022-08-19T08:59:16;96984.00;;;21.95;65.66
28606;BME280;46498;49.968;7.754;2022-08-19T09:04:20;96974.00;;;22.19;61.84
28606;BME280;46498;49.968;7.754;2022-08-19T09:09:34;96982.00;;;22.35;58.87
28606;BME280;46498;49.968;7.754;2022-08-19T09:15:02;96989.00;;;22.58;58.53
28606;BME280;46498;49.968;7.754;2022-08-19T09:20:23;96983.00;;;22.89;56.08
28606;BME280;46498;49.968;7.754;2022-08-19T09:25:27;96974.00;;;23.54;54.05
28606;BME280;46498;49.968;7.754;2022-08-19T09:30:33;96979.00;;;24.05;52.71
28606;BME280;46498;49.968;7.754;2022-08-19T09:35:35;96982.00;;;23.98;51.48
28606;BME280;46498;49.968;7.754;2022-08-19T09:40:50;96979.00;;;24.07;47.84
28606;BME280;46498;49.968;7.754;2022-08-19T09:45:52;96980.00;;;24.52;47.53
28606;BME280;46498;49.968;7.754;2022-08-19T09:50:53;96975.00;;;24.94;46.89
28606;BME280;46498;49.968;7.754;2022-08-19T09:55:55;96976.00;;;25.16;47.08
28606;BME280;46498;49.968;7.754;2022-08-19T10:00:57;96979.00;;;25.70;45.64
28606;BME280;46498;49.968;7.754;2022-08-19T10:06:01;96976.00;;;26.11;43.46
28606;BME280;46498;49.968;7.754;2022-08-19T10:11:04;96969.00;;;25.17;45.72
28606;BME280;46498;49.968;7.754;2022-08-19T10:16:29;96959.00;;;24.98;46.37
28606;BME280;46498;49.968;7.754;2022-08-19T10:21:32;96965.00;;;25.24;45.75
28606;BME280;46498;49.968;7.754;2022-08-19T10:26:37;96969.00;;;25.17;46.57
28606;BME280;46498;49.968;7.754;2022-08-19T10:31:42;96963.00;;;24.83;45.59
28606;BME280;46498;49.968;7.754;2022-08-19T10:37:04;96955.00;;;25.01;46.51
28606;BME280;46498;49.968;7.754;2022-08-19T10:42:11;96959.00;;;24.40;46.75
28606;BME280;46498;49.968;7.754;2022-08-19T10:47:13;96946.00;;;25.20;45.38
28606;BME280;46498;49.968;7.754;2022-08-19T10:52:25;96954.00;;;25.86;41.88
28606;BME280;46498;49.968;7.754;2022-08-19T10:57:39;96951.00;;;25.71;42.10
28606;BME280;46498;49.968;7.754;2022-08-19T11:03:03;96930.00;;;26.12;41.60
28606;BME280;46498;49.968;7.754;2022-08-19T11:08:03;96919.00;;;26.09;38.70
28606;BME280;46498;49.968;7.754;2022-08-19T11:13:24;96931.00;;;26.61;39.00
28606;BME280;46498;49.968;7.754;2022-08-19T11:18:26;96934.00;;;27.14;36.62
28606;BME280;46498;49.968;7.754;2022-08-19T11:23:27;96919.00;;;27.46;36.99
28606;BME280;46498;49.968;7.754;2022-08-19T11:28:28;96923.00;;;27.08;36.55
28606;BME280;46498;49.968;7.754;2022-08-19T11:33:30;96929.00;;;26.61;37.42
28606;BME280;46498;49.968;7.754;2022-08-19T11:38:31;96930.00;;;27.38;37.34
28606;BME280;46498;49.968;7.754;2022-08-19T11:43:33;96918.00;;;27.29;37.98
28606;BME280;46498;49.968;7.754;2022-08-19T11:48:38;96926.00;;;27.51;36.85
28606;BME280;46498;49.968;7.754;2022-08-19T11:53:40;96924.00;;;27.36;36.96
28606;BME280;46498;49.968;7.754;2022-08-19T11:58:41;96915.00;;;27.63;36.18
28606;BME280;46498;49.968;7.754;2022-08-19T12:03:44;96907.00;;;28.17;36.41
28606;BME280;46498;49.968;7.754;2022-08-19T12:08:46;96905.00;;;27.57;35.94
28606;BME280;46498;49.968;7.754;2022-08-19T12:13:48;96900.00;;;27.92;35.76
28606;BME280;46498;49.968;7.754;2022-08-19T12:18:49;96901.00;;;28.44;35.72
28606;BME280;46498;49.968;7.754;2022-08-19T12:23:51;96900.00;;;28.47;34.57
28606;BME280;46498;49.968;7.754;2022-08-19T12:28:56;96887.00;;;28.77;34.20
28606;BME280;46498;49.968;7.754;2022-08-19T12:34:00;96867.00;;;28.42;34.78
28606;BME280;46498;49.968;7.754;2022-08-19T12:39:03;96866.00;;;28.10;33.74
28606;BME280;46498;49.968;7.754;2022-08-19T12:44:04;96870.00;;;27.73;35.21
28606;BME280;46498;49.968;7.754;2022-08-19T12:49:08;96867.00;;;28.18;34.29
28606;BME280;46498;49.968;7.754;2022-08-19T12:54:57;96860.00;;;28.08;34.75
28606;BME280;46498;49.968;7.754;2022-08-19T12:59:58;96858.00;;;28.25;34.73
28606;BME280;46498;49.968;7.754;2022-08-19T13:04:59;96858.00;;;27.92;35.76
28606;BME280;46498;49.968;7.754;2022-08-19T13:10:02;96859.00;;;27.93;36.21
28606;BME280;46498;49.968;7.754;2022-08-19T13:15:04;96869.00;;;28.43;35.91
28606;BME280;46498;49.968;7.754;2022-08-19T13:20:11;96888.00;;;28.26;36.36
28606;BME280;46498;49.968;7.754;2022-08-19T13:25:13;96876.00;;;28.63;35.26
28606;BME280;46498;49.968;7.754;2022-08-19T13:30:18;96862.00;;;28.28;35.66
28606;BME280;46498;49.968;7.754;2022-08-19T13:35:45;96864.00;;;27.92;36.04
28606;BME280;46498;49.968;7.754;2022-08-19T13:40:47;96874.00;;;27.79;36.21
28606;BME280;46498;49.968;7.754;2022-08-19T13:45:51;96867.00;;;27.54;36.85
28606;BME280;46498;49.968;7.754;2022-08-19T13:50:55;96871.00;;;28.19;36.20
28606;BME280;46498;49.968;7.754;2022-08-19T13:55:56;96861.00;;;27.66;37.37
28606;BME280;46498;49.968;7.754;2022-08-19T14:00:58;96872.00;;;27.94;37.08
28606;BME280;46498;49.968;7.754;2022-08-19T14:05:59;96872.00;;;27.64;37.68
28606;BME280;46498;49.968;7.754;2022-08-19T14:11:01;96873.00;;;27.58;38.36
28606;BME280;46498;49.968;7.754;2022-08-19T14:16:11;96876.00;;;28.00;37.26
28606;BME280;46498;49.968;7.754;2022-08-19T14:21:17;96881.00;;;27.96;36.95
28606;BME280;46498;49.968;7.754;2022-08-19T14:26:21;96886.00;;;27.57;36.93
28606;BME280;46498;49.968;7.754;2022-08-19T14:31:22;96888.00;;;28.07;35.40
28606;BME280;46498;49.968;7.754;2022-08-19T14:36:30;96879.00;;;28.04;36.09
28606;BME280;46498;49.968;7.754;2022-08-19T14:41:40;96869.00;;;27.96;36.45
28606;BME280;46498;49.968;7.754;2022-08-19T14:46:42;96884.00;;;27.32;37.82
28606;BME280;46498;49.968;7.754;2022-08-19T14:51:50;96891.00;;;27.37;37.88
28606;BME280;46498;49.968;7.754;2022-08-19T14:56:51;96880.00;;;27.74;36.89
28606;BME280;46498;49.968;7.754;2022-08-19T15:01:55;96881.00;;;28.17;36.07
28606;BME280;46498;49.968;7.754;2022-08-19T15:06:57;96893.00;;;28.37;35.34
28606;BME280;46498;49.968;7.754;2022-08-19T15:11:58;96885.00;;;28.28;35.47
28606;BME280;46498;49.968;7.754;2022-08-19T15:17:04;96881.00;;;27.52;36.63
28606;BME280;46498;49.968;7.754;2022-08-19T15:22:05;96886.00;;;27.08;37.72
28606;BME280;46498;49.968;7.754;2022-08-19T15:27:07;96884.00;;;27.08;38.49
28606;BME280;46498;49.968;7.754;2022-08-19T15:32:08;96891.00;;;27.42;37.69
28606;BME280;46498;49.968;7.754;2022-08-19T15:37:09;96892.00;;;27.49;37.91
28606;BME280;46498;49.968;7.754;2022-08-19T15:42:10;96871.00;;;26.87;37.89
28606;BME280;46498;49.968;7.754;2022-08-19T15:47:18;96867.00;;;26.55;39.34
28606;BME280;46498;49.968;7.754;2022-08-19T15:52:24;96868.00;;;26.43;39.85
28606;BME280;46498;49.968;7.754;2022-08-19T15:57:25;96863.00;;;26.71;39.52
28606;BME280;46498;49.968;7.754;2022-08-19T16:02:36;96862.00;;;26.81;39.29
28606;BME280;46498;49.968;7.754;2022-08-19T16:07:58;96865.00;;;26.81;39.27
28606;BME280;46498;49.968;7.754;2022-08-19T16:12:59;96862.00;;;26.70;39.38
28606;BME280;46498;49.968;7.754;2022-08-19T16:18:01;96857.00;;;26.58;39.61
28606;BME280;46498;49.968;7.754;2022-08-19T16:23:05;96861.00;;;26.55;39.41
28606;BME280;46498;49.968;7.754;2022-08-19T16:28:06;96872.00;;;26.40;39.75
28606;BME280;46498;49.968;7.754;2022-08-19T16:33:10;96873.00;;;26.41;39.76
28606;BME280;46498;49.968;7.754;2022-08-19T16:38:11;96871.00;;;26.48;39.18
28606;BME280;46498;49.968;7.754;2022-08-19T16:43:12;96866.00;;;26.53;39.23
28606;BME280;46498;49.968;7.754;2022-08-19T16:48:16;96869.00;;;26.25;39.98
28606;BME280;46498;49.968;7.754;2022-08-19T16:53:20;96873.00;;;26.17;39.94
28606;BME280;46498;49.968;7.754;2022-08-19T16:58:23;96880.00;;;26.01;40.29
28606;BME280;46498;49.968;7.754;2022-08-19T17:03:29;96885.00;;;25.99;40.57
28606;BME280;46498;49.968;7.754;2022-08-19T17:08:37;96889.00;;;25.74;40.96
28606;BME280;46498;49.968;7.754;2022-08-19T17:13:38;96889.00;;;25.56;41.75
28606;BME280;46498;49.968;7.754;2022-08-19T17:18:39;96893.00;;;25.53;42.13
28606;BME280;46498;49.968;7.754;2022-08-19T17:23:40;96900.00;;;25.23;42.85
28606;BME280;46498;49.968;7.754;2022-08-19T17:28:46;96894.00;;;25.17;42.98
28606;BME280;46498;49.968;7.754;2022-08-19T17:33:50;96905.00;;;24.90;43.59
28606;BME280;46498;49.968;7.754;2022-08-19T17:38:57;96903.00;;;24.89;43.39
28606;BME280;46498;49.968;7.754;2022-08-19T17:43:59;96916.00;;;24.61;43.48
28606;BME280;46498;49.968;7.754;2022-08-19T17:49:01;96915.00;;;24.53;43.65
28606;BME280;46498;49.968;7.754;2022-08-19T17:54:02;96928.00;;;24.47;43.10
28606;BME280;46498;49.968;7.754;2022-08-19T17:59:05;96930.00;;;24.37;43.06
28606;BME280;46498;49.968;7.754;2022-08-19T18:04:15;96930.00;;;24.21;43.03
28606;BME280;46498;49.968;7.754;2022-08-19T18:09:16;96935.00;;;24.00;43.55
28606;BME280;46498;49.968;7.754;2022-08-19T18:14:22;96938.00;;;23.86;44.11
28606;BME280;46498;49.968;7.754;2022-08-19T18:19:32;96946.00;;;23.75;44.48
28606;BME280;46498;49.968;7.754;2022-08-19T18:24:43;96946.00;;;23.61;44.76
28606;BME280;46498;49.968;7.754;2022-08-19T18:29:46;96951.00;;;23.40;45.25
28606;BME280;46498;49.968;7.754;2022-08-19T18:34:51;96952.00;;;23.26;45.79
28606;BME280;46498;49.968;7.754;2022-08-19T18:39:54;96966.00;;;23.17;46.13
28606;BME280;46498;49.968;7.754;2022-08-19T18:45:14;96966.00;;;22.97;46.67
28606;BME280;46498;49.968;7.754;2022-08-19T18:50:34;96978.00;;;22.80;47.71
28606;BME280;46498;49.968;7.754;2022-08-19T18:55:35;96978.00;;;22.65;48.65
28606;BME280;46498;49.968;7.754;2022-08-19T19:00:37;96998.00;;;22.53;49.19
28606;BME280;46498;49.968;7.754;2022-08-19T19:05:38;96999.00;;;22.41;50.03
28606;BME280;46498;49.968;7.754;2022-08-19T19:10:43;97003.00;;;22.35;50.47
28606;BME280;46498;49.968;7.754;2022-08-19T19:15:45;97014.00;;;22.27;51.45
28606;BME280;46498;49.968;7.754;2022-08-19T19:20:46;97025.00;;;22.09;52.34
28606;BME280;46498;49.968;7.754;2022-08-19T19:25:47;97019.00;;;21.94;53.02
28606;BME280;46498;49.968;7.754;2022-08-19T19:30:54;97033.00;;;21.89;53.86
28606;BME280;46498;49.968;7.754;2022-08-19T19:35:57;97033.00;;;21.92;54.00
28606;BME280;46498;49.968;7.754;2022-08-19T19:40:58;97048.00;;;21.97;54.07
28606;BME280;46498;49.968;7.754;2022-08-19T19:45:59;97046.00;;;21.94;54.32
28606;BME280;46498;49.968;7.754;2022-08-19T19:51:02;97053.00;;;21.95;54.60
28606;BME280;46498;49.968;7.754;2022-08-19T19:56:03;97051.00;;;21.93;54.93
28606;BME280;46498;49.968;7.754;2022-08-19T20:01:05;97058.00;;;21.94;55.23
28606;BME280;46498;49.968;7.754;2022-08-19T20:06:14;97051.00;;;21.81;55.84
28606;BME280;46498;49.968;7.754;2022-08-19T20:11:31;97052.00;;;21.80;56.01
28606;BME280;46498;49.968;7.754;2022-08-19T20:16:32;97059.00;;;21.86;56.47
28606;BME280;46498;49.968;7.754;2022-08-19T20:21:34;97059.00;;;21.82;57.14
28606;BME280;46498;49.968;7.754;2022-08-19T20:26:36;97060.00;;;21.83;57.58
28606;BME280;46498;49.968;7.754;2022-08-19T20:31:37;97064.00;;;21.68;58.61
28606;BME280;46498;49.968;7.754;2022-08-19T20:36:58;97060.00;;;21.58;59.65
28606;BME280;46498;49.968;7.754;2022-08-19T20:41:59;97064.00;;;21.55;60.25
28606;BME280;46498;49.968;7.754;2022-08-19T20:47:00;97077.00;;;21.49;60.69
28606;BME280;46498;49.968;7.754;2022-08-19T20:52:04;97073.00;;;21.39;61.39
28606;BME280;46498;49.968;7.754;2022-08-19T20:57:05;97074.00;;;21.38;61.74
28606;BME280;46498;49.968;7.754;2022-08-19T21:02:06;97076.00;;;21.34;61.78
28606;BME280;46498;49.968;7.754;2022-08-19T21:07:07;97079.00;;;21.34;61.98
28606;BME280;46498;49.968;7.754;2022-08-19T21:12:11;97078.00;;;21.35;62.24
28606;BME280;46498;49.968;7.754;2022-08-19T21:17:13;97089.00;;;21.25;62.67
28606;BME280;46498;49.968;7.754;2022-08-19T21:22:14;97092.00;;;21.23;62.74
28606;BME280;46498;49.968;7.754;2022-08-19T21:27:17;97094.00;;;21.17;63.21
28606;BME280;46498;49.968;7.754;2022-08-19T21:32:19;97096.00;;;21.17;63.27
28606;BME280;46498;49.968;7.754;2022-08-19T21:37:20;97089.00;;;21.09;63.86
28606;BME280;46498;49.968;7.754;2022-08-19T21:42:25;97095.00;;;21.05;63.89
28606;BME280;46498;49.968;7.754;2022-08-19T21:47:26;97093.00;;;20.98;64.38
28606;BME280;46498;49.968;7.754;2022-08-19T21:52:28;97109.00;;;20.93;64.91
28606;BME280;46498;49.968;7.754;2022-08-19T21:57:29;97109.00;;;20.82;65.44
28606;BME280;46498;49.968;7.754;2022-08-19T22:02:32;97109.00;;;20.74;65.56
28606;BME280;46498;49.968;7.754;2022-08-19T22:07:35;97103.00;;;20.71;65.85
28606;BME280;46498;49.968;7.754;2022-08-19T22:12:38;97113.00;;;20.63;66.29
28606;BME280;46498;49.968;7.754;2022-08-19T22:17:52;97106.00;;;20.62;66.37
28606;BME280;46498;49.968;7.754;2022-08-19T22:22:58;97099.00;;;20.70;66.04
28606;BME280;46498;49.968;7.754;2022-08-19T22:28:07;97097.00;;;20.65;66.42
28606;BME280;46498;49.968;7.754;2022-08-19T22:33:14;97095.00;;;20.62;66.87
28606;BME280;46498;49.968;7.754;2022-08-19T22:38:16;97087.00;;;20.59;66.99
28606;BME280;46498;49.968;7.754;2022-08-19T22:43:21;97091.00;;;20.54;67.54
28606;BME280;46498;49.968;7.754;2022-08-19T22:48:29;97082.00;;;20.50;68.06
28606;BME280;46498;49.968;7.754;2022-08-19T22:53:41;97086.00;;;20.45;68.43
28606;BME280;46498;49.968;7.754;2022-08-19T22:58:42;97088.00;;;20.32;69.24
28606;BME280;46498;49.968;7.754;2022-08-19T23:03:44;97089.00;;;20.31;69.27
28606;BME280;46498;49.968;7.754;2022-08-19T23:08:45;97077.00;;;20.34;69.27
28606;BME280;46498;49.968;7.754;2022-08-19T23:13:47;97071.00;;;20.39;69.02
28606;BME280;46498;49.968;7.754;2022-08-19T23:18:48;97065.00;;;20.30;70.00
28606;BME280;46498;49.968;7.754;2022-08-19T23:23:56;97061.00;;;20.02;71.96
28606;BME280;46498;49.968;7.754;2022-08-19T23:28:57;97071.00;;;20.18;71.36
28606;BME280;46498;49.968;7.754;2022-08-19T23:34:17;97060.00;;;20.07;72.28
28606;BME280;46498;49.968;7.754;2022-08-19T23:39:18;97064.00;;;20.00;72.91
28606;BME280;46498;49.968;7.754;2022-08-19T23:44:19;97066.00;;;20.02;73.33
28606;BME280;46498;49.968;7.754;2022-08-19T23:49:22;97064.00;;;20.00;73.48
28606;BME280;46498;49.968;7.754;2022-08-19T23:54:24;97071.00;;;19.93;74.25
28606;BME280;46498;49.968;7.754;2022-08-19T23:59:44;97058.00;;;19.86;74.94
